Aérodrome :
LOGIN :

S'inscrire | Disclaimer

   EN    FR    IT 

 










Légende :    VFR   VFR Marginal   IFR   IFR Intensif   IFR Très Intensif
Visi : 
Plafond : 
>= 8 km
>= 3000ft
5 à 8 km
1000 à 3000 ft
1500m à 5 km
500 à 1000 ft
800 à 1500m
200 à 500 ft
< 800m
< 200 ft
Symboles :   Orages  Brouillard  Fortes neiges  Fortes précipitations  Vent > 20 kt
SIGMETs :   Divers  Orages  Givrage  Turbulence  Onde Orograph.  Cendres Volcan.






- Altitude de l'aérodrome : 0 ft


ETEB - Ansbach Army Heliport

DERNIER METAR :
  • 171856Z AUTO 24013G19KT 9999 SCT065 10/10 A2981 RMK AO2 SLP111 T01020100 $

METARs EXPIRÉS :
  • 171756Z AUTO 26015G25KT 9999 FEW029 11/10 A2980 RMK AO2 PK WND 26026/1656 SLP108 T01110098 10134 20109 52012 $
  • 171656Z AUTO 26016G27KT 9999 FEW120 12/08 A2978 RMK AO2 PK WND 24029/17 SLP101 T01150080 $

TAF TAF ETEB
Valide du 17 à 17h jusqu'au 18 à 23h UTC


171700Z 1717/1823 24015G20KT 9999 SCT015 BKN030 OVC040 620609 QNH2978INS
BECMG 1723/1724 25012KT 9999 BKN009 OVC015 620606 QNH2981INS
BECMG 1805/1806 26012G18KT 9000 -SHRA BKN010 BKN020 620509 QNH2988INS
BECMG 1810/1811 26015G25KT 9000 -SHRA VCTS BKN030 OVC040 620509 QNH2988INS
BECMG 1815/1816 27012G18KT 8000 -RA BR BKN010 OVC025 620409 QNH2991INS TX13/1814Z TN09/1802Z



MET'MAP, la Météo Aéronautique d'un coup d'oeil ! - Copyright ORBIFLY Décembre 2007 - Disclaimer

ORBIFLY MET'MAP TEAM :

Programmation & Développement : Alexandra Zaïnal
Sur une idée originale de : Baudouin d'Aumeries
Assistance à la programmation : Marc-Olivier Méhu
Soutien technique & logistique : Manuel Goepfert

Contact : metmap@orbifly.com




SOURCES & CREDITS :

   NOAA